Time;durP1;ratioP1;P1;durP2;ratioP2;P2;SDS_P1;SDS_P2;PMS_P1;PMS_P2;Temp;Humidity;BMP_temperature;BMP_pressure;BME280_temperature;BME280_humidity;BME280_pressure;Samples;Min_cycle;Max_cycle;Signal;HPM_P1;HPM_P2
2023/11/24 00:02:19;;;;;;;28.52;26.52;;;12.40;99.90;;;;;;4983100;28;20038;-71
2023/11/24 00:04:46;;;;;;;29.15;27.10;;;12.40;99.90;;;;;;4990217;28;20022;-71
2023/11/24 00:07:12;;;;;;;27.92;26.30;;;12.40;99.90;;;;;;4992229;28;20038;-71
2023/11/24 00:09:38;;;;;;;31.58;28.67;;;12.30;99.90;;;;;;4992293;28;20030;-71
2023/11/24 00:12:05;;;;;;;28.10;25.80;;;12.30;99.90;;;;;;4990847;28;20420;-71
2023/11/24 00:14:31;;;;;;;31.17;28.52;;;12.40;99.90;;;;;;4990902;28;20483;-71
2023/11/24 00:16:57;;;;;;;28.67;26.60;;;12.30;99.90;;;;;;4990545;28;20049;-71
2023/11/24 00:19:23;;;;;;;29.90;27.25;;;12.30;99.90;;;;;;4990652;28;20622;-71
2023/11/24 00:21:49;;;;;;;29.15;26.83;;;12.20;99.90;;;;;;4992301;28;20049;-70
2023/11/24 00:24:18;;;;;;;28.10;26.13;;;12.20;99.90;;;;;;4992784;28;20494;-72
2023/11/24 00:26:44;;;;;;;29.55;27.25;;;12.30;99.90;;;;;;4990094;28;20525;-71
2023/11/24 00:29:11;;;;;;;27.65;25.52;;;12.30;99.90;;;;;;4992613;28;20031;-71
2023/11/24 00:31:37;;;;;;;27.98;25.90;;;12.20;99.90;;;;;;4989914;28;20038;-71
2023/11/24 00:34:03;;;;;;;28.98;26.70;;;12.20;99.90;;;;;;4990472;28;20034;-71
2023/11/24 00:36:29;;;;;;;29.02;27.05;;;12.30;99.90;;;;;;4992118;28;20054;-70
2023/11/24 00:38:56;;;;;;;30.13;27.77;;;12.30;99.90;;;;;;4992097;28;20039;-71
2023/11/24 00:41:22;;;;;;;28.60;26.73;;;12.30;99.90;;;;;;4992150;28;20046;-71
2023/11/24 00:43:49;;;;;;;29.73;27.15;;;12.40;99.90;;;;;;4991464;28;20460;-70
2023/11/24 00:46:18;;;;;;;29.42;26.67;;;12.30;99.90;;;;;;4990656;28;20051;-73
2023/11/24 00:48:44;;;;;;;28.73;26.05;;;12.40;99.90;;;;;;4990756;28;20043;-73
2023/11/24 00:51:10;;;;;;;29.23;27.10;;;12.40;99.90;;;;;;4989312;28;20038;-73
2023/11/24 00:53:37;;;;;;;30.92;28.48;;;12.30;99.90;;;;;;4991892;28;20042;-73
2023/11/24 00:56:03;;;;;;;31.33;29.02;;;12.20;99.90;;;;;;4991859;28;20049;-73
2023/11/24 00:58:29;;;;;;;36.67;33.95;;;12.30;99.90;;;;;;4991474;28;20029;-73
2023/11/24 01:00:55;;;;;;;29.20;27.13;;;12.30;99.90;;;;;;4991182;28;20042;-74
2023/11/24 01:03:21;;;;;;;29.13;26.75;;;12.30;99.90;;;;;;4991806;28;20487;-74
2023/11/24 01:05:51;;;;;;;29.15;26.95;;;12.30;99.90;;;;;;4991101;28;20038;-73
2023/11/24 01:08:17;;;;;;;35.08;32.80;;;12.30;99.90;;;;;;4991339;28;20061;-74
2023/11/24 01:10:44;;;;;;;32.30;29.95;;;12.30;99.90;;;;;;4991046;28;20034;-73
2023/11/24 01:13:10;;;;;;;35.13;32.65;;;12.20;99.90;;;;;;4991825;28;20403;-73
2023/11/24 01:15:36;;;;;;;36.63;34.08;;;12.30;99.90;;;;;;4991255;28;20042;-73
2023/11/24 01:18:02;;;;;;;33.70;31.50;;;12.30;99.90;;;;;;4991294;28;20035;-73
2023/11/24 01:20:28;;;;;;;33.92;31.13;;;12.30;99.90;;;;;;4990669;28;20053;-74
2023/11/24 01:22:54;;;;;;;34.05;31.65;;;12.40;99.90;;;;;;4991530;28;20494;-74
2023/11/24 01:25:21;;;;;;;32.38;30.13;;;12.40;99.90;;;;;;4990349;28;20046;-74
2023/11/24 01:27:47;;;;;;;31.80;29.38;;;12.50;99.90;;;;;;4970455;28;20043;-73
2023/11/24 01:30:15;;;;;;;44.42;41.65;;;12.50;99.90;;;;;;4991590;28;20098;-74
2023/11/24 01:32:41;;;;;;;36.13;33.65;;;12.50;99.90;;;;;;4994097;28;20054;-73
2023/11/24 01:35:07;;;;;;;41.97;39.00;;;12.50;99.90;;;;;;4990190;28;20057;-73
2023/11/24 01:37:33;;;;;;;47.05;44.05;;;12.40;99.90;;;;;;4994011;28;20391;-73
2023/11/24 01:39:59;;;;;;;41.72;38.75;;;12.40;99.90;;;;;;4993628;28;20040;-73
2023/11/24 01:42:25;;;;;;;40.40;37.72;;;12.40;99.90;;;;;;4994857;28;20049;-75
2023/11/24 01:44:52;;;;;;;48.67;45.50;;;12.30;99.90;;;;;;4995460;28;20391;-74
2023/11/24 01:47:18;;;;;;;44.75;41.33;;;12.30;99.90;;;;;;4989445;28;20034;-74
2023/11/24 01:49:45;;;;;;;38.47;35.47;;;12.30;99.90;;;;;;4988113;28;20065;-72
2023/11/24 01:52:12;;;;;;;40.80;37.50;;;12.30;99.90;;;;;;4993148;28;20041;-72
2023/11/24 01:54:38;;;;;;;43.50;40.97;;;12.30;99.90;;;;;;5000602;28;20038;-71
2023/11/24 01:57:07;;;;;;;42.97;39.45;;;12.40;99.90;;;;;;4984062;28;20083;-72
2023/11/24 01:59:37;;;;;;;44.60;41.25;;;12.40;99.90;;;;;;4961081;28;20047;-72
2023/11/24 02:02:03;;;;;;;43.03;40.13;;;12.40;99.90;;;;;;4987069;28;20035;-72
2023/11/24 02:04:30;;;;;;;43.97;40.95;;;12.40;99.90;;;;;;4992725;28;20042;-72
2023/11/24 02:06:57;;;;;;;41.42;38.78;;;12.40;99.90;;;;;;4992299;28;20030;-72
2023/11/24 02:09:24;;;;;;;39.30;36.67;;;12.40;99.90;;;;;;4985876;28;20380;-72
2023/11/24 02:11:50;;;;;;;40.05;37.30;;;12.40;99.90;;;;;;4990526;28;20403;-72
2023/11/24 02:14:16;;;;;;;36.38;33.78;;;12.40;99.90;;;;;;4993599;28;20533;-72
2023/11/24 02:16:42;;;;;;;42.90;40.15;;;12.40;99.90;;;;;;4993427;28;20050;-72
2023/11/24 02:19:08;;;;;;;37.60;34.78;;;12.40;99.90;;;;;;4993302;28;20030;-72
2023/11/24 02:21:35;;;;;;;37.85;34.88;;;12.40;99.90;;;;;;4992716;28;20054;-72
2023/11/24 02:24:01;;;;;;;36.38;34.22;;;12.30;99.90;;;;;;4994086;28;20037;-72
2023/11/24 02:26:27;;;;;;;35.83;33.25;;;12.30;99.90;;;;;;4985603;28;20043;-72
2023/11/24 02:28:53;;;;;;;36.47;33.25;;;12.30;99.90;;;;;;4973409;28;20043;-72
2023/11/24 02:31:19;;;;;;;39.60;37.03;;;12.40;99.90;;;;;;4983970;28;20065;-72
2023/11/24 02:33:48;;;;;;;35.38;32.70;;;12.30;99.90;;;;;;4992750;28;20037;-71
2023/11/24 02:36:20;;;;;;;30.10;27.90;;;12.30;99.90;;;;;;4993348;28;20083;-72
2023/11/24 02:38:49;;;;;;;35.28;32.88;;;12.40;99.90;;;;;;4975015;28;20054;-72
2023/11/24 02:41:16;;;;;;;34.75;32.33;;;12.30;99.90;;;;;;4986158;28;20042;-71
2023/11/24 02:43:42;;;;;;;40.30;37.65;;;12.30;99.90;;;;;;4989040;28;20383;-72
2023/11/24 02:46:12;;;;;;;34.67;32.10;;;12.30;99.90;;;;;;5002282;28;20039;-72
2023/11/24 02:48:39;;;;;;;35.28;32.78;;;12.30;99.90;;;;;;4993892;28;20368;-71
2023/11/24 02:51:06;;;;;;;40.08;37.47;;;12.20;99.90;;;;;;4993885;28;20046;-70
2023/11/24 02:53:33;;;;;;;38.75;35.97;;;12.30;99.90;;;;;;4976455;28;20049;-72
2023/11/24 02:55:59;;;;;;;42.92;39.75;;;12.40;99.90;;;;;;4993324;28;20406;-72
2023/11/24 02:58:25;;;;;;;39.80;36.88;;;12.40;99.90;;;;;;4994129;28;20043;-71
2023/11/24 03:00:52;;;;;;;40.35;37.60;;;12.40;99.90;;;;;;4985812;28;20030;-72
2023/11/24 03:03:18;;;;;;;38.45;35.90;;;12.40;99.90;;;;;;4993902;28;20479;-72
2023/11/24 03:05:44;;;;;;;36.75;34.00;;;12.40;99.90;;;;;;4991902;28;20041;-72
2023/11/24 03:08:10;;;;;;;32.80;30.00;;;12.40;99.90;;;;;;4986769;28;20030;-71
2023/11/24 03:10:37;;;;;;;33.17;30.95;;;12.30;99.90;;;;;;4988259;28;20033;-72
2023/11/24 03:13:03;;;;;;;33.67;31.02;;;12.30;99.90;;;;;;4993358;28;20046;-72
2023/11/24 03:15:29;;;;;;;47.33;43.38;;;12.30;99.90;;;;;;4991650;28;20399;-72
2023/11/24 03:17:56;;;;;;;48.70;45.05;;;12.20;99.90;;;;;;4993511;28;20050;-72
2023/11/24 03:20:22;;;;;;;43.97;40.78;;;12.30;99.90;;;;;;4992379;28;20026;-72
2023/11/24 03:22:48;;;;;;;42.25;39.28;;;12.30;99.90;;;;;;4991875;28;20042;-71
2023/11/24 03:25:14;;;;;;;37.85;35.10;;;12.30;99.90;;;;;;4992856;28;20140;-72
2023/11/24 03:27:41;;;;;;;38.28;35.33;;;12.30;99.90;;;;;;4991879;28;20054;-72
2023/11/24 03:30:08;;;;;;;40.30;37.25;;;12.30;99.90;;;;;;4993085;28;20030;-72
2023/11/24 03:32:34;;;;;;;44.83;41.95;;;12.30;99.90;;;;;;4993713;28;20357;-71
2023/11/24 03:35:00;;;;;;;44.28;41.00;;;12.30;99.90;;;;;;4988073;28;20498;-72
2023/11/24 03:37:26;;;;;;;29.52;26.60;;;12.30;99.90;;;;;;4991964;28;20034;-72
2023/11/24 03:39:53;;;;;;;28.38;25.85;;;12.30;99.90;;;;;;4991801;28;20038;-71
2023/11/24 03:42:19;;;;;;;27.63;25.20;;;12.30;99.90;;;;;;4990135;28;20031;-72
2023/11/24 03:44:45;;;;;;;24.00;21.55;;;12.30;99.90;;;;;;4992414;28;20042;-71
2023/11/24 03:47:11;;;;;;;22.38;20.73;;;12.40;99.90;;;;;;4992520;28;20034;-71
2023/11/24 03:49:38;;;;;;;30.83;28.38;;;12.40;99.90;;;;;;4980878;28;20396;-72
2023/11/24 03:52:04;;;;;;;23.98;21.98;;;12.40;99.90;;;;;;4988247;28;20030;-72
2023/11/24 03:54:30;;;;;;;29.83;27.30;;;12.40;99.90;;;;;;4991542;28;20042;-72
2023/11/24 03:56:56;;;;;;;22.88;21.02;;;12.40;99.90;;;;;;4991547;28;20434;-72
2023/11/24 03:59:22;;;;;;;24.55;22.30;;;12.50;99.90;;;;;;4991332;28;20026;-72
2023/11/24 04:01:50;;;;;;;29.63;27.48;;;12.50;99.90;;;;;;4989563;28;20438;-71
2023/11/24 04:04:16;;;;;;;29.30;26.83;;;12.50;99.90;;;;;;4991454;28;20033;-72
2023/11/24 04:06:42;;;;;;;30.15;27.95;;;12.40;99.90;;;;;;4990809;28;20052;-72
2023/11/24 04:09:10;;;;;;;39.22;36.38;;;12.40;99.90;;;;;;4992005;28;20049;-71
2023/11/24 04:11:36;;;;;;;35.17;31.98;;;12.40;99.90;;;;;;4990687;28;20394;-72
2023/11/24 04:14:02;;;;;;;34.72;31.38;;;12.40;99.90;;;;;;4991424;28;20038;-71
2023/11/24 04:16:31;;;;;;;35.50;32.55;;;12.40;99.90;;;;;;4991092;28;20403;-72
2023/11/24 04:18:57;;;;;;;36.55;33.75;;;12.40;99.90;;;;;;4980552;28;20399;-72
2023/11/24 04:21:23;;;;;;;37.13;34.58;;;12.30;99.90;;;;;;4992038;28;20027;-71
2023/11/24 04:23:49;;;;;;;36.45;33.95;;;12.30;99.90;;;;;;4991515;28;20053;-71
2023/11/24 04:26:15;;;;;;;34.15;31.48;;;12.40;99.90;;;;;;4991127;28;20054;-72
2023/11/24 04:28:41;;;;;;;30.67;27.83;;;12.40;99.90;;;;;;4992335;28;20041;-71
2023/11/24 04:31:07;;;;;;;30.30;27.48;;;12.40;99.90;;;;;;4986629;28;20031;-72
2023/11/24 04:33:33;;;;;;;31.75;28.65;;;12.30;99.90;;;;;;4993106;28;20031;-72
2023/11/24 04:35:59;;;;;;;31.05;28.70;;;12.40;99.90;;;;;;5003976;28;20034;-72
2023/11/24 04:38:25;;;;;;;24.67;22.35;;;12.30;99.90;;;;;;5001624;28;20043;-71
2023/11/24 04:40:52;;;;;;;29.33;26.90;;;12.30;99.90;;;;;;4991337;28;20049;-72
2023/11/24 04:43:22;;;;;;;29.33;26.60;;;12.20;99.90;;;;;;4992608;28;20038;-72
2023/11/24 04:45:48;;;;;;;31.02;27.98;;;12.30;99.90;;;;;;4990798;28;20038;-71
2023/11/24 04:48:15;;;;;;;26.42;23.92;;;12.20;99.90;;;;;;4992283;28;20403;-72
2023/11/24 04:50:41;;;;;;;27.10;25.13;;;12.20;99.90;;;;;;4992800;28;20045;-71
2023/11/24 04:53:07;;;;;;;27.27;24.73;;;12.10;99.90;;;;;;4992677;28;20027;-71
2023/11/24 04:55:33;;;;;;;25.58;23.33;;;12.10;99.90;;;;;;4991192;28;20038;-72
2023/11/24 04:57:59;;;;;;;24.05;22.20;;;12.10;99.90;;;;;;4991328;28;20069;-72
2023/11/24 05:00:25;;;;;;;26.63;24.42;;;12.10;99.90;;;;;;4991601;28;20030;-71
2023/11/24 05:02:51;;;;;;;24.10;21.85;;;12.10;99.90;;;;;;4996136;28;20060;-71
2023/11/24 05:05:17;;;;;;;26.27;23.83;;;12.10;99.90;;;;;;4993399;28;20042;-72
2023/11/24 05:07:44;;;;;;;23.35;21.67;;;12.10;99.90;;;;;;4996407;28;20033;-72
2023/11/24 05:10:10;;;;;;;25.35;23.20;;;12.10;99.90;;;;;;4995954;28;20034;-72
2023/11/24 05:12:36;;;;;;;27.38;25.27;;;12.10;99.90;;;;;;5015577;28;20037;-71
2023/11/24 05:15:08;;;;;;;29.15;27.15;;;12.10;99.90;;;;;;5015390;28;20026;-68
2023/11/24 05:17:38;;;;;;;28.60;26.45;;;12.10;99.90;;;;;;4995732;28;20042;-72
2023/11/24 05:20:05;;;;;;;28.45;26.40;;;12.10;99.90;;;;;;4996020;28;20023;-72
2023/11/24 05:22:31;;;;;;;450.88;57.53;;;12.10;99.90;;;;;;4995731;28;20037;-71
2023/11/24 05:24:58;;;;;;;28.55;26.15;;;12.20;99.90;;;;;;4994442;28;20050;-72
2023/11/24 05:27:24;;;;;;;23.35;21.80;;;12.20;99.90;;;;;;4995753;28;20041;-71
2023/11/24 05:29:50;;;;;;;917.15;67.60;;;12.20;99.90;;;;;;4995799;28;20475;-71
2023/11/24 05:32:16;;;;;;;27.08;25.00;;;12.20;99.90;;;;;;4995799;28;20042;-72
2023/11/24 05:34:42;;;;;;;28.25;26.10;;;12.20;99.90;;;;;;4998376;28;20034;-72
2023/11/24 05:37:08;;;;;;;30.17;27.50;;;12.30;99.90;;;;;;5012677;28;20052;-72
2023/11/24 05:39:37;;;;;;;29.58;27.45;;;12.30;99.90;;;;;;4995686;28;20022;-72
2023/11/24 05:42:04;;;;;;;31.23;28.63;;;12.10;99.90;;;;;;4994918;28;20494;-71
2023/11/24 05:44:31;;;;;;;27.13;25.40;;;12.10;99.90;;;;;;4995883;28;20042;-71
2023/11/24 05:46:57;;;;;;;27.90;25.38;;;12.00;99.90;;;;;;4994587;28;20038;-72
2023/11/24 05:49:23;;;;;;;26.92;25.13;;;12.00;99.90;;;;;;4994556;28;20026;-72
2023/11/24 05:51:49;;;;;;;192.30;34.92;;;12.00;99.90;;;;;;4994966;28;20030;-72
2023/11/24 05:54:15;;;;;;;22.55;20.67;;;12.10;99.90;;;;;;4995683;28;20031;-72
2023/11/24 05:56:41;;;;;;;24.88;23.00;;;12.10;99.90;;;;;;4995079;28;20045;-71
2023/11/24 05:59:07;;;;;;;23.45;22.00;;;12.10;99.90;;;;;;4995415;28;20042;-72
2023/11/24 06:01:33;;;;;;;22.65;21.25;;;12.20;99.90;;;;;;4995055;28;20030;-72
2023/11/24 06:04:00;;;;;;;20.75;18.90;;;12.20;99.90;;;;;;4995116;28;20041;-71
2023/11/24 06:06:26;;;;;;;21.60;19.92;;;12.20;99.90;;;;;;4994867;28;20057;-71
2023/11/24 06:08:53;;;;;;;54.22;20.48;;;12.20;99.90;;;;;;4995138;28;20045;-72
2023/11/24 06:11:19;;;;;;;20.17;18.88;;;12.10;99.90;;;;;;4994123;28;20023;-72
2023/11/24 06:13:46;;;;;;;23.13;21.48;;;12.10;99.90;;;;;;4995329;28;20046;-72
2023/11/24 06:16:12;;;;;;;25.50;23.75;;;12.10;99.90;;;;;;5000629;28;20410;-72
2023/11/24 06:18:41;;;;;;;26.75;24.80;;;12.10;99.90;;;;;;4987532;28;20062;-71
2023/11/24 06:21:12;;;;;;;25.38;23.77;;;12.10;99.90;;;;;;4992357;28;20053;-73
2023/11/24 06:23:39;;;;;;;25.17;23.70;;;12.10;99.90;;;;;;4981879;28;20376;-74
2023/11/24 06:26:08;;;;;;;26.38;24.58;;;12.00;99.90;;;;;;4986616;28;20046;-73
2023/11/24 06:28:34;;;;;;;25.00;23.10;;;12.00;99.90;;;;;;4994535;28;20045;-74
2023/11/24 06:31:00;;;;;;;26.77;24.80;;;12.00;99.90;;;;;;4994145;28;20046;-74
2023/11/24 06:33:27;;;;;;;26.25;24.55;;;12.00;99.90;;;;;;4994420;28;20042;-74
2023/11/24 06:35:55;;;;;;;23.50;21.88;;;11.90;99.90;;;;;;4999282;28;20030;-74
2023/11/24 06:38:22;;;;;;;26.23;24.50;;;12.00;99.90;;;;;;4995073;28;20061;-74
2023/11/24 06:40:48;;;;;;;29.55;27.70;;;12.00;99.90;;;;;;4993913;28;20046;-73
2023/11/24 06:43:14;;;;;;;44.63;31.77;;;11.90;99.90;;;;;;5008470;28;20078;-74
2023/11/24 06:45:40;;;;;;;27.75;25.77;;;12.00;99.90;;;;;;4993690;28;20030;-74
2023/11/24 06:48:06;;;;;;;28.05;26.20;;;12.00;99.90;;;;;;4994362;28;20047;-74
2023/11/24 06:50:33;;;;;;;30.10;28.30;;;12.10;99.90;;;;;;4994317;28;20037;-74
2023/11/24 06:52:59;;;;;;;29.48;27.63;;;12.10;99.90;;;;;;4994357;28;20034;-74
2023/11/24 06:55:25;;;;;;;29.30;27.45;;;12.10;99.90;;;;;;4993979;28;20030;-74
2023/11/24 06:57:51;;;;;;;29.42;27.50;;;12.10;99.90;;;;;;4993810;28;20049;-74
2023/11/24 07:00:17;;;;;;;29.10;27.10;;;12.00;99.90;;;;;;4993241;28;20037;-74
2023/11/24 07:02:46;;;;;;;30.50;28.40;;;12.00;99.90;;;;;;4993902;28;20050;-73
2023/11/24 07:05:13;;;;;;;29.58;27.77;;;12.00;99.90;;;;;;4993801;28;20026;-74
2023/11/24 07:07:39;;;;;;;30.48;28.67;;;12.10;99.90;;;;;;4993689;28;20026;-74
2023/11/24 07:10:07;;;;;;;29.05;27.40;;;12.00;99.90;;;;;;4995054;28;20041;-74
2023/11/24 07:12:33;;;;;;;31.45;29.35;;;12.00;99.90;;;;;;5013227;28;20033;-74
2023/11/24 07:15:03;;;;;;;29.88;27.75;;;12.00;99.90;;;;;;4995349;28;20065;-74
2023/11/24 07:17:31;;;;;;;33.35;31.30;;;12.00;99.90;;;;;;4991530;28;20053;-74
2023/11/24 07:19:57;;;;;;;33.83;31.65;;;12.00;99.90;;;;;;4993731;28;20037;-73
2023/11/24 07:22:24;;;;;;;31.83;29.92;;;12.00;99.90;;;;;;5006340;28;20050;-72
2023/11/24 07:24:51;;;;;;;29.35;27.42;;;11.90;99.90;;;;;;4988517;28;20039;-72
2023/11/24 07:27:17;;;;;;;33.75;31.63;;;11.90;99.90;;;;;;4978128;28;20042;-72
2023/11/24 07:29:43;;;;;;;27.02;25.33;;;12.00;99.90;;;;;;4974004;28;20023;-72
2023/11/24 07:32:14;;;;;;;30.52;28.45;;;12.00;99.90;;;;;;4972370;28;20050;-72
2023/11/24 07:34:40;;;;;;;30.33;28.48;;;12.00;99.90;;;;;;4973054;28;20039;-71
2023/11/24 07:37:07;;;;;;;34.90;32.58;;;12.00;99.90;;;;;;4974447;28;20042;-72
2023/11/24 07:39:33;;;;;;;35.15;32.97;;;12.10;99.90;;;;;;4991983;28;20043;-72
2023/11/24 07:41:59;;;;;;;36.70;34.38;;;12.10;99.90;;;;;;4991426;28;20034;-72
2023/11/24 07:44:31;;;;;;;36.78;34.45;;;12.10;99.90;;;;;;4987077;28;20022;-72
2023/11/24 07:46:57;;;;;;;35.47;33.38;;;12.10;99.90;;;;;;4972295;28;20420;-72
2023/11/24 07:49:24;;;;;;;35.42;33.20;;;12.10;99.90;;;;;;4987889;28;20383;-72
2023/11/24 07:51:50;;;;;;;40.42;38.08;;;12.10;99.90;;;;;;4991519;28;20038;-71
2023/11/24 07:54:16;;;;;;;40.80;38.10;;;12.20;99.90;;;;;;4977910;28;20043;-72
2023/11/24 07:56:42;;;;;;;32.47;30.27;;;12.10;99.90;;;;;;4992480;28;20019;-70
2023/11/24 07:59:15;;;;;;;45.75;42.00;;;12.20;99.90;;;;;;4992907;28;20494;-67
2023/11/24 08:01:41;;;;;;;166.35;56.50;;;12.30;99.90;;;;;;4989423;28;20102;-68
2023/11/24 08:04:07;;;;;;;60.20;56.90;;;12.30;99.90;;;;;;4984092;28;20073;-67
2023/11/24 08:06:34;;;;;;;40.13;37.63;;;12.40;99.90;;;;;;4994731;28;20028;-72
2023/11/24 08:09:03;;;;;;;32.85;30.83;;;12.40;99.90;;;;;;4994904;28;20022;-72
2023/11/24 08:11:33;;;;;;;34.67;32.60;;;12.40;99.90;;;;;;4999701;28;20370;-72
2023/11/24 08:13:59;;;;;;;32.72;30.63;;;12.40;99.90;;;;;;5011245;28;20038;-72
2023/11/24 08:16:25;;;;;;;32.22;30.40;;;12.30;99.90;;;;;;4994481;28;20046;-72
2023/11/24 08:18:52;;;;;;;28.85;26.75;;;12.40;99.90;;;;;;4991560;28;20034;-68
2023/11/24 08:21:18;;;;;;;97.38;33.70;;;12.30;99.90;;;;;;4990998;28;20506;-71
2023/11/24 08:23:45;;;;;;;54.80;33.83;;;12.30;99.90;;;;;;4993170;28;20078;-71
2023/11/24 08:26:18;;;;;;;34.35;32.08;;;12.30;99.90;;;;;;4990496;28;20062;-77
2023/11/24 08:28:45;;;;;;;33.03;31.05;;;12.30;99.90;;;;;;4992755;28;20502;-76
2023/11/24 08:31:17;;;;;;;33.45;31.48;;;12.30;99.90;;;;;;4991901;28;20042;-77
2023/11/24 08:33:43;;;;;;;31.35;29.35;;;12.30;99.90;;;;;;4991390;28;20018;-76
2023/11/24 08:36:11;;;;;;;31.90;30.00;;;12.30;99.90;;;;;;4992331;28;20030;-76
2023/11/24 08:38:37;;;;;;;30.25;28.42;;;12.30;99.90;;;;;;4992562;28;20042;-76
2023/11/24 08:41:13;;;;;;;31.02;28.58;;;12.30;99.90;;;;;;5003575;28;20382;-76
2023/11/24 08:43:39;;;;;;;35.75;30.60;;;12.30;99.90;;;;;;5014223;28;20045;-76
2023/11/24 08:46:09;;;;;;;31.45;29.65;;;12.30;99.90;;;;;;5015283;28;20513;-76
2023/11/24 08:48:35;;;;;;;29.17;27.42;;;12.30;99.90;;;;;;5013296;28;20097;-75
2023/11/24 08:51:02;;;;;;;33.53;31.63;;;12.30;99.90;;;;;;4995302;28;20029;-75
2023/11/24 08:53:28;;;;;;;28.20;26.13;;;12.30;99.90;;;;;;4996652;28;20046;-77
2023/11/24 08:55:55;;;;;;;34.65;32.67;;;12.30;99.90;;;;;;4993708;28;20031;-78
2023/11/24 08:58:21;;;;;;;28.23;26.60;;;12.40;99.90;;;;;;4995138;28;20399;-76
2023/11/24 09:00:47;;;;;;;29.73;27.80;;;12.40;99.90;;;;;;4994335;28;20046;-77
2023/11/24 09:03:13;;;;;;;33.55;30.33;;;12.40;99.90;;;;;;5005800;28;20030;-77
2023/11/24 09:05:41;;;;;;;34.17;31.98;;;12.40;99.90;;;;;;4991505;28;20041;-76
2023/11/24 09:08:07;;;;;;;32.05;30.05;;;12.40;99.90;;;;;;4976626;28;20047;-77
2023/11/24 09:10:33;;;;;;;32.30;30.20;;;12.40;99.90;;;;;;4981504;28;20030;-77
2023/11/24 09:12:59;;;;;;;44.95;42.15;;;12.50;99.90;;;;;;5012089;28;20041;-77
2023/11/24 09:15:25;;;;;;;35.83;33.30;;;12.40;99.90;;;;;;4995363;28;20039;-77
2023/11/24 09:17:51;;;;;;;36.25;33.92;;;12.40;99.90;;;;;;4996133;28;20042;-77
2023/11/24 09:20:18;;;;;;;34.72;32.47;;;12.50;99.90;;;;;;4977268;28;20046;-77
2023/11/24 09:22:44;;;;;;;40.50;37.85;;;12.50;99.90;;;;;;4995581;28;20026;-77
2023/11/24 09:25:11;;;;;;;38.55;35.70;;;12.50;99.90;;;;;;4995433;28;20057;-78
2023/11/24 09:27:41;;;;;;;39.03;36.40;;;12.60;99.90;;;;;;4994871;28;20066;-72
2023/11/24 09:30:10;;;;;;;39.65;36.92;;;12.60;99.90;;;;;;4995183;28;20057;-71
2023/11/24 09:32:37;;;;;;;37.70;35.33;;;12.50;99.90;;;;;;4995955;28;20499;-69
2023/11/24 09:35:08;;;;;;;41.88;39.08;;;12.60;99.90;;;;;;4995370;28;20047;-69
2023/11/24 09:37:34;;;;;;;38.33;35.72;;;12.60;99.90;;;;;;4995320;28;20053;-69
2023/11/24 09:40:04;;;;;;;41.88;38.92;;;12.70;99.90;;;;;;4994996;28;20038;-69
2023/11/24 09:42:39;;;;;;;41.08;38.20;;;12.70;99.90;;;;;;4995211;28;20126;-68
2023/11/24 09:45:11;;;;;;;51.05;47.85;;;12.80;99.90;;;;;;4998398;28;20041;-69
2023/11/24 09:47:37;;;;;;;50.40;46.35;;;12.80;99.90;;;;;;4996083;28;20053;-70
2023/11/24 09:50:03;;;;;;;36.42;33.92;;;12.80;99.90;;;;;;4993521;28;20026;-69
2023/11/24 09:52:29;;;;;;;65.10;58.88;;;12.80;99.90;;;;;;4992658;28;20045;-69
2023/11/24 09:54:59;;;;;;;40.90;38.10;;;12.80;99.90;;;;;;4994154;28;20037;-69
2023/11/24 09:57:25;;;;;;;31.65;29.75;;;12.80;99.90;;;;;;5003127;28;20098;-69
2023/11/24 09:59:51;;;;;;;32.17;30.05;;;12.90;99.90;;;;;;4986659;28;20049;-69
2023/11/24 10:02:18;;;;;;;31.88;29.67;;;12.90;99.90;;;;;;4994244;28;20391;-69
2023/11/24 10:04:44;;;;;;;33.88;31.60;;;13.00;99.90;;;;;;4993923;28;20035;-69
2023/11/24 10:07:22;;;;;;;34.50;31.88;;;13.00;99.90;;;;;;4994064;28;20022;-72
2023/11/24 10:09:49;;;;;;;33.67;31.15;;;13.00;99.90;;;;;;5001068;28;20026;-71
2023/11/24 10:12:16;;;;;;;27.90;26.02;;;13.10;99.90;;;;;;5003957;28;20344;-69
2023/11/24 10:14:43;;;;;;;31.00;28.70;;;13.00;99.90;;;;;;4994770;28;20157;-69
2023/11/24 10:17:10;;;;;;;31.23;29.02;;;13.10;99.90;;;;;;4992034;28;20043;-69
2023/11/24 10:19:36;;;;;;;30.65;28.27;;;13.10;99.90;;;;;;4990157;28;20049;-69
2023/11/24 10:22:02;;;;;;;37.85;35.15;;;13.00;99.90;;;;;;4993798;28;20034;-69
2023/11/24 10:24:32;;;;;;;32.80;30.65;;;13.00;99.90;;;;;;4994590;28;20046;-69
2023/11/24 10:27:21;;;;;;;29.23;27.20;;;13.10;99.90;;;;;;5004188;28;20049;-69
2023/11/24 10:29:50;;;;;;;32.95;30.33;;;13.20;99.90;;;;;;5012728;28;20053;-72
2023/11/24 10:32:20;;;;;;;34.42;32.20;;;13.20;99.90;;;;;;4992229;28;20044;-72
2023/11/24 10:34:48;;;;;;;35.50;33.13;;;13.30;99.90;;;;;;4994402;28;20042;-72
2023/11/24 10:37:20;;;;;;;36.67;34.28;;;13.40;99.90;;;;;;5000600;28;20034;-72
2023/11/24 10:39:47;;;;;;;30.83;28.55;;;13.40;99.90;;;;;;4993522;28;20381;-71
2023/11/24 10:42:15;;;;;;;28.55;26.35;;;13.40;99.90;;;;;;4992760;28;20061;-72
2023/11/24 10:44:43;;;;;;;34.95;32.50;;;13.40;99.90;;;;;;4992997;28;20027;-72
2023/11/24 10:47:10;;;;;;;29.23;27.20;;;13.40;99.90;;;;;;5002590;28;20038;-72
2023/11/24 10:49:52;;;;;;;29.83;27.35;;;13.40;99.90;;;;;;4993691;28;20045;-72
2023/11/24 10:52:27;;;;;;;25.67;23.73;;;13.40;99.90;;;;;;4994915;28;20035;-72
2023/11/24 10:55:16;;;;;;;31.85;28.92;;;13.40;99.90;;;;;;4998432;28;20038;-72
2023/11/24 10:57:43;;;;;;;28.88;26.50;;;13.30;99.90;;;;;;4995302;28;20026;-72
2023/11/24 11:00:10;;;;;;;44.42;41.50;;;13.40;99.90;;;;;;5008277;28;20061;-72
2023/11/24 11:02:40;;;;;;;43.70;40.63;;;13.30;99.90;;;;;;4993008;28;20046;-72
2023/11/24 11:05:23;;;;;;;44.88;41.45;;;13.30;99.90;;;;;;4992263;28;20030;-71
2023/11/24 11:08:17;;;;;;;38.53;35.42;;;13.30;99.90;;;;;;5009085;28;20037;-71
2023/11/24 11:10:45;;;;;;;39.70;36.63;;;13.30;99.90;;;;;;5011909;28;20034;-72
2023/11/24 11:13:12;;;;;;;34.95;31.77;;;13.40;99.90;;;;;;5012238;28;20033;-72
2023/11/24 11:15:38;;;;;;;49.15;45.50;;;13.40;99.90;;;;;;5001402;28;20045;-72
2023/11/24 11:18:14;;;;;;;31.08;28.75;;;13.40;99.90;;;;;;5010132;28;20475;-72
2023/11/24 11:20:41;;;;;;;33.08;30.15;;;13.40;99.90;;;;;;5011335;28;20113;-72
2023/11/24 11:23:14;;;;;;;32.80;30.50;;;13.50;99.90;;;;;;5012200;28;20034;-72
2023/11/24 11:25:42;;;;;;;55.15;50.90;;;13.50;99.90;;;;;;5005514;28;20057;-72
2023/11/24 11:28:17;;;;;;;46.45;42.72;;;13.50;99.90;;;;;;5008841;28;20364;-72
2023/11/24 11:30:45;;;;;;;35.10;32.35;;;13.60;99.90;;;;;;5012186;28;20041;-72
2023/11/24 11:33:14;;;;;;;37.58;34.47;;;13.70;99.90;;;;;;5001300;28;20037;-72
2023/11/24 11:35:41;;;;;;;36.38;33.35;;;13.70;99.90;;;;;;4992470;28;20451;-72
2023/11/24 11:38:13;;;;;;;34.97;32.17;;;13.80;99.90;;;;;;5001901;28;20053;-72
2023/11/24 11:40:44;;;;;;;40.35;37.28;;;13.80;99.90;;;;;;4991031;28;20479;-72
2023/11/24 11:43:13;;;;;;;32.05;29.40;;;13.80;99.90;;;;;;4991707;28;20038;-71
2023/11/24 11:45:48;;;;;;;55.67;51.38;;;13.80;99.90;;;;;;4984934;28;20038;-71
2023/11/24 11:48:15;;;;;;;38.00;35.00;;;13.70;99.90;;;;;;4997014;28;20038;-72
2023/11/24 11:50:56;;;;;;;62.92;58.42;;;13.70;99.90;;;;;;4990831;28;20057;-72
2023/11/24 11:53:25;;;;;;;;;;;13.80;99.90;;;;;;4993103;28;20019;-71
2023/11/24 11:55:55;;;;;;;32.90;30.35;;;13.90;99.90;;;;;;4991914;28;19917;-71
2023/11/24 11:58:24;;;;;;;47.00;43.38;;;13.90;99.90;;;;;;4991197;28;20027;-72
2023/11/24 12:00:51;;;;;;;39.03;35.97;;;13.90;99.90;;;;;;4989973;28;20042;-71
2023/11/24 12:03:20;;;;;;;40.72;37.53;;;14.00;99.90;;;;;;4996764;28;20045;-72
2023/11/24 12:05:47;;;;;;;42.47;39.50;;;13.90;99.90;;;;;;5010219;28;20026;-71
2023/11/24 12:08:21;;;;;;;53.13;49.33;;;14.00;99.90;;;;;;4994668;28;20034;-71
2023/11/24 12:10:48;;;;;;;38.75;35.67;;;14.10;99.90;;;;;;4999831;28;20035;-71
2023/11/24 12:13:14;;;;;;;42.45;39.13;;;14.20;99.90;;;;;;4995632;28;20029;-71
2023/11/24 12:15:42;;;;;;;43.53;40.45;;;14.30;99.90;;;;;;5010494;28;20037;-71
2023/11/24 12:18:15;;;;;;;44.42;41.30;;;14.50;99.90;;;;;;5006860;28;20034;-72
2023/11/24 12:20:41;;;;;;;71.20;66.70;;;14.40;99.90;;;;;;4990820;28;20041;-71
2023/11/24 12:23:09;;;;;;;58.85;55.05;;;14.50;99.90;;;;;;4994458;28;20029;-71
2023/11/24 12:25:36;;;;;;;58.88;54.97;;;14.70;99.90;;;;;;5009969;28;20044;-71
2023/11/24 12:28:08;;;;;;;57.92;54.25;;;14.70;99.90;;;;;;5011538;28;20026;-71
2023/11/24 12:30:40;;;;;;;70.72;66.30;;;14.70;99.90;;;;;;4993808;28;20042;-71